Rabbs Prairie, Texas
Current Conditions -  °F | °C
As of 1:10 AM on Saturday 20 Dec 2014 (Local Time) from K3T5 Reporting Station
Overcast Overcast  
Wind Chill: 52°   Ceiling: 1200
Heat Index: 52°   Visibility: 10mi
Dew Point: 48°   Wind: 8mph
Humidity: 89%   Direction: 20°NNE
Pressure: 30.15"   Gusts: 16mph
Location:  29.8569°N, 96.9311°W
Report Text: K3T5 200710Z AUTO 02007G14KT 10SM OVC012 11/09 A3015 RMK AO2 T01090091
Loading
Personal Weather Stations






























Interactive Weather Map New forecast layout! Learn more

10-Day Weather Forecast

Advertisements
Track Severe Weather on mobile